Bushong, Kansas
Current Conditions -  °F | °C
As of 1:53 AM on Wednesday 22 Oct 2014 (Local Time) from KEMP Reporting Station
Clear Clear  
Wind Chill: 54°   Ceiling: Unl
Heat Index: 54°   Visibility: 10mi
Dew Point: 49°   Wind: 6mph
Humidity: 83%   Direction: 140°SE
Pressure: 30.07"   Gusts: NA
Location:  38.6329°N, 96.2407°W
Report Text: KEMP 220653Z AUTO 14005KT 10SM CLR 12/09 A3007 RMK AO2 SLP180 T01220094
Loading
Personal Weather Stations






























Interactive Weather Map
Tropical Storm Tracking
New forecast layout! Learn more

10-Day Weather Forecast

Advertisements
Track Severe Weather on mobile